Sneads Ferry, North Carolina
Current Conditions -  °F | °C
As of 6:56 AM on Tuesday 27 Jan 2015 (Local Time) from KNCA Reporting Station
Overcast Overcast  
Wind Chill: 30°   Ceiling: 5500
Heat Index: 38°   Visibility: 10mi
Dew Point: 29°   Wind: 13mph
Humidity: 70%   Direction: 340°NNW
Pressure: 29.74"   Gusts: NA
Location:  34.55°N, 77.4°W
Report Text: KNCA 271156Z AUTO 34011KT 10SM OVC055 03/M02 A2974 RMK AO2 SLP074 60000 T00331017 10078 20033 53025
Loading
Personal Weather Stations






























Interactive Weather Map New forecast layout! Learn more

10-Day Weather Forecast

Advertisements
Track Severe Weather on mobile